Time;durP1;ratioP1;P1;durP2;ratioP2;P2;SDS_P1;SDS_P2;PMS_P1;PMS_P2;Temp;Humidity;BMP_temperature;BMP_pressure;BME280_temperature;BME280_humidity;BME280_pressure;Samples;Min_cycle;Max_cycle;Signal;HPM_P1;HPM_P2
2022/04/07 00:01:08;;;;;;;3.47;2.60;;;15.10;88.90;;;;;;5016433;28;20490;-83
2022/04/07 00:03:34;;;;;;;3.43;2.90;;;15.10;89.00;;;;;;5016209;28;20507;-83
2022/04/07 00:06:01;;;;;;;3.63;2.73;;;15.10;88.80;;;;;;5031860;28;20514;-91
2022/04/07 00:08:27;;;;;;;5.47;3.37;;;15.00;89.20;;;;;;5033044;28;20498;-84
2022/04/07 00:10:53;;;;;;;4.50;3.17;;;15.00;89.40;;;;;;5033080;28;20778;-83
2022/04/07 00:13:18;;;;;;;5.10;3.80;;;14.90;89.60;;;;;;5016437;28;20529;-84
2022/04/07 00:15:44;;;;;;;4.43;3.70;;;14.90;89.80;;;;;;5019853;28;20178;-91
2022/04/07 00:18:10;;;;;;;4.30;2.93;;;14.90;90.00;;;;;;5035422;28;20194;-83
2022/04/07 00:20:36;;;;;;;3.63;2.77;;;14.80;90.10;;;;;;5038204;28;20541;-91
2022/04/07 00:23:03;;;;;;;4.90;3.13;;;14.70;90.10;;;;;;5037035;28;20455;-91
2022/04/07 00:25:30;;;;;;;3.53;3.23;;;14.70;90.40;;;;;;5036666;28;20788;-91
2022/04/07 00:27:56;;;;;;;4.63;3.97;;;14.60;90.50;;;;;;5038482;28;20439;-84
2022/04/07 00:30:22;;;;;;;4.87;4.13;;;14.60;90.60;;;;;;5037674;28;20989;-87
2022/04/07 00:32:49;;;;;;;4.70;4.03;;;14.50;90.70;;;;;;5037589;28;20198;-85
2022/04/07 00:35:17;;;;;;;6.43;3.40;;;14.50;90.80;;;;;;5040399;28;20507;-92
2022/04/07 00:37:43;;;;;;;3.43;2.97;;;14.40;91.30;;;;;;5048904;28;20438;-90
2022/04/07 00:40:10;;;;;;;5.10;3.10;;;14.40;91.00;;;;;;5033956;28;20990;-83
2022/04/07 00:42:48;;;;;;;3.20;3.00;;;14.30;91.10;;;;;;5034873;28;20518;-92
2022/04/07 00:45:15;;;;;;;3.07;2.33;;;14.30;91.30;;;;;;5032995;28;20415;-91
2022/04/07 00:47:42;;;;;;;3.30;2.57;;;14.20;91.40;;;;;;5034706;28;20503;-92
2022/04/07 00:50:09;;;;;;;4.33;3.03;;;14.20;91.50;;;;;;5033045;28;20398;-91
2022/04/07 00:52:39;;;;;;;2.83;2.53;;;14.20;91.60;;;;;;5033435;28;20494;-83
2022/04/07 00:55:06;;;;;;;3.77;3.40;;;14.10;91.70;;;;;;5033173;28;20420;-84
2022/04/07 00:57:32;;;;;;;4.00;2.87;;;14.00;91.80;;;;;;5035267;28;20443;-83
2022/04/07 00:59:58;;;;;;;4.73;3.20;;;13.90;91.90;;;;;;5033291;28;20424;-84
2022/04/07 01:02:24;;;;;;;3.27;2.63;;;13.80;92.20;;;;;;5033435;28;20448;-84
2022/04/07 01:04:49;;;;;;;4.37;3.00;;;13.80;92.30;;;;;;5034437;28;20175;-90
2022/04/07 01:07:15;;;;;;;3.17;2.37;;;13.70;92.40;;;;;;5034378;28;20245;-91
2022/04/07 01:09:41;;;;;;;3.40;3.00;;;13.70;92.60;;;;;;5034322;28;20171;-91
2022/04/07 01:12:07;;;;;;;3.07;2.77;;;13.60;92.70;;;;;;5035426;28;20205;-92
2022/04/07 01:14:33;;;;;;;3.40;2.63;;;13.60;92.90;;;;;;5034198;28;20243;-84
2022/04/07 01:16:58;;;;;;;5.03;2.80;;;13.50;93.00;;;;;;5020782;28;20488;-92
2022/04/07 01:19:24;;;;;;;4.80;3.03;;;13.50;93.10;;;;;;5015671;28;20533;-90
2022/04/07 01:21:50;;;;;;;3.50;2.80;;;13.50;93.20;;;;;;5017035;28;20207;-91
2022/04/07 01:24:18;;;;;;;4.40;3.07;;;13.50;93.30;;;;;;5016670;28;20233;-83
2022/04/07 01:26:45;;;;;;;3.40;2.43;;;13.40;93.40;;;;;;5016530;28;20845;-83
2022/04/07 01:29:13;;;;;;;3.27;2.30;;;13.40;93.50;;;;;;5030603;28;20405;-83
2022/04/07 01:31:39;;;;;;;2.92;2.42;;;13.40;93.60;;;;;;5017065;28;20424;-84
2022/04/07 01:34:09;;;;;;;2.57;2.10;;;13.30;94.10;;;;;;5036525;28;20183;-84
2022/04/07 01:36:38;;;;;;;4.68;2.88;;;13.30;93.90;;;;;;5021907;28;20424;-90
2022/04/07 01:39:07;;;;;;;3.53;2.70;;;13.30;94.00;;;;;;5020945;28;20555;-92
2022/04/07 01:41:35;;;;;;;3.20;2.72;;;13.30;94.10;;;;;;5021348;28;20424;-84
2022/04/07 01:44:02;;;;;;;4.30;2.60;;;13.20;94.10;;;;;;5034862;28;20186;-92
2022/04/07 01:46:29;;;;;;;6.03;2.95;;;13.20;94.30;;;;;;5027438;28;20230;-91
2022/04/07 01:48:58;;;;;;;3.50;2.42;;;13.20;94.40;;;;;;5022573;28;20202;-91
2022/04/07 01:51:24;;;;;;;2.83;2.30;;;13.10;94.60;;;;;;5016972;28;20210;-84
2022/04/07 01:53:50;;;;;;;3.67;2.47;;;13.10;94.70;;;;;;5016212;28;20508;-84
2022/04/07 01:56:18;;;;;;;3.58;2.72;;;13.10;94.90;;;;;;5016681;28;20436;-84
2022/04/07 01:58:45;;;;;;;3.47;2.35;;;13.00;95.10;;;;;;5033428;28;20207;-91
2022/04/07 02:01:11;;;;;;;4.90;2.93;;;13.00;95.30;;;;;;5032941;28;20198;-84
2022/04/07 02:03:38;;;;;;;4.17;2.67;;;12.90;95.40;;;;;;5017783;28;20424;-84
2022/04/07 02:06:18;;;;;;;3.15;2.72;;;12.90;95.60;;;;;;5017032;28;20704;-91
2022/04/07 02:08:45;;;;;;;3.77;2.40;;;12.80;95.80;;;;;;5016125;28;20249;-92
2022/04/07 02:11:11;;;;;;;4.15;2.80;;;12.80;96.00;;;;;;5018817;28;20925;-84
2022/04/07 02:13:39;;;;;;;3.25;2.72;;;12.80;96.20;;;;;;5018742;28;20206;-91
2022/04/07 02:16:09;;;;;;;3.60;2.80;;;12.70;96.40;;;;;;5025352;28;20193;-92
2022/04/07 02:18:36;;;;;;;3.58;2.67;;;12.60;96.70;;;;;;5053621;28;20194;-84
2022/04/07 02:21:02;;;;;;;3.78;2.83;;;12.60;96.90;;;;;;5039045;28;20544;-84
2022/04/07 02:23:28;;;;;;;4.80;2.70;;;12.50;97.20;;;;;;5038786;28;20206;-91
2022/04/07 02:25:54;;;;;;;3.77;2.57;;;12.50;97.50;;;;;;5055298;28;20218;-92
2022/04/07 02:28:20;;;;;;;2.93;2.40;;;12.40;97.70;;;;;;5036961;28;20461;-91
2022/04/07 02:30:47;;;;;;;3.38;3.00;;;12.40;98.00;;;;;;5036895;28;20416;-92
2022/04/07 02:33:13;;;;;;;3.70;2.45;;;12.30;98.30;;;;;;5039247;28;20679;-92
2022/04/07 02:35:39;;;;;;;3.60;2.80;;;12.30;98.60;;;;;;5039277;28;20208;-92
2022/04/07 02:38:05;;;;;;;4.38;2.60;;;12.20;98.80;;;;;;5038441;28;20444;-92
2022/04/07 02:40:31;;;;;;;3.95;2.58;;;12.20;99.00;;;;;;5037756;28;20232;-92
2022/04/07 02:42:57;;;;;;;3.90;2.87;;;12.10;99.40;;;;;;5035770;28;20195;-84
2022/04/07 02:45:23;;;;;;;4.30;2.97;;;12.10;99.50;;;;;;5036366;28;20416;-84
2022/04/07 02:47:48;;;;;;;4.80;2.90;;;12.10;99.70;;;;;;5039080;28;20237;-84
2022/04/07 02:50:16;;;;;;;5.00;2.80;;;12.10;99.90;;;;;;5038503;28;20178;-84
2022/04/07 02:52:42;;;;;;;5.47;2.35;;;12.00;99.90;;;;;;5053604;28;20202;-92
2022/04/07 02:55:09;;;;;;;4.53;2.83;;;12.00;99.90;;;;;;5038459;28;20179;-92
2022/04/07 02:57:35;;;;;;;4.07;3.15;;;12.00;99.90;;;;;;5038093;28;20198;-93
2022/04/07 03:00:03;;;;;;;4.80;3.10;;;12.00;99.90;;;;;;5039691;28;20201;-84
2022/04/07 03:02:28;;;;;;;5.03;3.63;;;12.00;99.90;;;;;;5038717;28;20237;-85
2022/04/07 03:04:54;;;;;;;4.57;3.07;;;12.00;99.90;;;;;;5037997;28;20174;-84
2022/04/07 03:07:20;;;;;;;6.37;3.73;;;12.00;99.90;;;;;;5037189;28;20886;-93
2022/04/07 03:09:46;;;;;;;3.47;3.10;;;12.00;99.90;;;;;;5038203;28;20174;-87
2022/04/07 03:12:13;;;;;;;6.20;4.50;;;12.00;99.90;;;;;;5038775;28;20667;-92
2022/04/07 03:14:40;;;;;;;8.20;5.65;;;12.10;99.90;;;;;;5038191;28;20811;-84
2022/04/07 03:17:06;;;;;;;10.93;5.30;;;12.10;99.90;;;;;;5022995;28;20211;-84
2022/04/07 03:19:32;;;;;;;11.63;7.18;;;12.10;99.90;;;;;;5017518;28;20171;-84
2022/04/07 03:21:58;;;;;;;11.10;7.60;;;12.20;99.90;;;;;;5017042;28;20209;-92
2022/04/07 03:24:27;;;;;;;13.30;6.50;;;12.20;99.90;;;;;;5033541;28;20414;-88
2022/04/07 03:26:53;;;;;;;9.68;6.40;;;12.20;99.90;;;;;;5034081;28;20803;-92
2022/04/07 03:29:21;;;;;;;6.38;5.28;;;12.30;99.90;;;;;;5019179;28;20175;-84
2022/04/07 03:31:48;;;;;;;7.45;4.82;;;12.30;99.90;;;;;;5034749;28;20180;-85
2022/04/07 03:34:14;;;;;;;5.22;4.10;;;12.30;99.90;;;;;;5033160;28;20186;-84
2022/04/07 03:36:39;;;;;;;4.63;3.80;;;12.30;99.90;;;;;;5018308;28;20187;-92
2022/04/07 03:39:05;;;;;;;6.33;4.13;;;12.30;99.90;;;;;;5036013;28;20428;-84
2022/04/07 03:41:31;;;;;;;4.40;4.00;;;12.30;99.90;;;;;;5019306;28;20179;-84
2022/04/07 03:43:57;;;;;;;5.27;3.83;;;12.30;99.90;;;;;;5034683;28;20607;-84
2022/04/07 03:46:23;;;;;;;8.87;5.03;;;12.30;99.90;;;;;;5023171;28;20215;-84
2022/04/07 03:48:49;;;;;;;10.45;5.35;;;12.30;99.90;;;;;;5032330;28;20195;-89
2022/04/07 03:51:16;;;;;;;5.97;3.97;;;12.20;99.90;;;;;;5027124;28;20668;-84
2022/04/07 03:53:42;;;;;;;8.23;5.13;;;12.20;99.90;;;;;;5015031;28;20198;-92
2022/04/07 03:56:08;;;;;;;2.50;2.27;;;12.20;99.90;;;;;;5015523;28;20254;-92
2022/04/07 03:58:33;;;;;;;1.37;1.27;;;12.10;99.90;;;;;;5015303;28;20435;-92
2022/04/07 04:00:59;;;;;;;6.90;4.87;;;12.10;99.90;;;;;;5014957;28;20202;-84
2022/04/07 04:03:25;;;;;;;7.13;4.87;;;12.00;99.90;;;;;;5015358;28;20945;-92
2022/04/07 04:05:50;;;;;;;7.07;5.07;;;12.00;99.90;;;;;;5030683;28;20266;-93
2022/04/07 04:08:16;;;;;;;7.07;4.30;;;12.00;99.90;;;;;;5013893;28;20238;-84
2022/04/07 04:10:42;;;;;;;6.33;5.10;;;11.90;99.90;;;;;;5014097;28;20187;-85
2022/04/07 04:13:08;;;;;;;5.77;4.43;;;11.90;99.90;;;;;;5017075;28;20395;-84
2022/04/07 04:15:33;;;;;;;7.23;4.60;;;11.90;99.90;;;;;;5018241;28;20181;-90
2022/04/07 04:17:59;;;;;;;7.30;5.40;;;11.90;99.90;;;;;;5034982;28;20201;-86
2022/04/07 04:20:25;;;;;;;5.80;5.20;;;11.90;99.90;;;;;;5033801;28;20651;-92
2022/04/07 04:22:51;;;;;;;5.77;4.93;;;11.90;99.90;;;;;;5035664;28;20202;-92
2022/04/07 04:25:17;;;;;;;6.97;5.73;;;11.80;99.90;;;;;;5053178;28;20457;-84
2022/04/07 04:27:43;;;;;;;6.90;5.25;;;11.80;99.90;;;;;;5036933;28;20613;-92
2022/04/07 04:30:09;;;;;;;12.20;5.27;;;11.80;99.90;;;;;;5036087;28;20171;-91
2022/04/07 04:32:35;;;;;;;7.10;5.53;;;11.90;99.90;;;;;;5020838;28;20264;-84
2022/04/07 04:35:01;;;;;;;10.05;5.32;;;11.90;99.90;;;;;;5010283;28;20184;-84
2022/04/07 04:37:27;;;;;;;7.13;5.30;;;11.90;99.90;;;;;;5011234;28;20223;-84
2022/04/07 04:39:53;;;;;;;7.83;4.70;;;11.90;99.90;;;;;;5014662;28;20180;-89
2022/04/07 04:42:19;;;;;;;8.52;5.07;;;12.00;99.90;;;;;;5017797;28;20210;-92
2022/04/07 04:44:46;;;;;;;3.80;3.40;;;11.90;99.90;;;;;;5006171;28;20641;-84
2022/04/07 04:47:12;;;;;;;4.57;3.58;;;12.00;99.90;;;;;;5006965;28;20516;-92
2022/04/07 04:49:41;;;;;;;5.77;5.07;;;12.00;99.90;;;;;;5012711;28;20230;-84
2022/04/07 04:52:11;;;;;;;5.53;3.78;;;12.00;99.90;;;;;;5029071;28;20555;-92
2022/04/07 04:54:38;;;;;;;4.35;1.98;;;12.00;99.90;;;;;;5009286;28;20186;-92
2022/04/07 04:57:04;;;;;;;10.07;6.85;;;12.00;99.90;;;;;;5018887;28;20210;-92
2022/04/07 04:59:30;;;;;;;7.57;4.32;;;12.00;99.90;;;;;;5016603;28;20679;-91
2022/04/07 05:01:56;;;;;;;3.20;2.83;;;12.00;99.90;;;;;;5016406;28;20211;-84
2022/04/07 05:04:21;;;;;;;5.50;4.00;;;12.00;99.90;;;;;;5007564;28;20420;-84
2022/04/07 05:06:47;;;;;;;9.30;4.33;;;12.10;99.90;;;;;;5010091;28;20517;-84
2022/04/07 05:09:13;;;;;;;4.67;3.80;;;12.10;99.90;;;;;;5024249;28;20575;-84
2022/04/07 05:11:39;;;;;;;3.90;2.73;;;12.10;99.90;;;;;;5034861;28;20236;-88
2022/04/07 05:14:04;;;;;;;4.97;3.87;;;12.10;99.90;;;;;;5045252;28;20174;-83
2022/04/07 05:16:30;;;;;;;3.70;3.27;;;12.10;99.90;;;;;;5017248;28;20178;-92
2022/04/07 05:18:56;;;;;;;5.00;4.53;;;12.20;99.90;;;;;;5020524;28;20591;-90
2022/04/07 05:21:22;;;;;;;4.97;3.30;;;12.20;99.90;;;;;;5049401;28;20179;-83
2022/04/07 05:23:47;;;;;;;4.43;3.70;;;12.20;99.90;;;;;;5037661;28;20194;-82
2022/04/07 05:26:13;;;;;;;4.67;4.20;;;12.20;99.90;;;;;;5018042;28;20230;-92
2022/04/07 05:28:42;;;;;;;4.90;3.92;;;12.30;99.90;;;;;;5036793;28;20733;-87
2022/04/07 05:31:09;;;;;;;2.22;2.08;;;12.30;99.90;;;;;;5035896;28;20187;-92
2022/04/07 05:33:34;;;;;;;3.80;3.42;;;12.30;99.90;;;;;;5018972;28;20690;-92
2022/04/07 05:36:00;;;;;;;3.70;3.07;;;12.30;99.90;;;;;;5019835;28;20281;-84
2022/04/07 05:38:26;;;;;;;4.07;3.23;;;12.40;99.90;;;;;;5018298;28;20229;-91
2022/04/07 05:40:52;;;;;;;4.20;3.80;;;12.40;99.90;;;;;;5017293;28;20424;-90
2022/04/07 05:43:18;;;;;;;6.23;3.00;;;12.40;99.90;;;;;;5026128;28;20964;-83
2022/04/07 05:45:45;;;;;;;4.67;3.17;;;12.50;99.90;;;;;;5022136;28;20419;-84
2022/04/07 05:48:13;;;;;;;3.45;3.08;;;12.50;99.90;;;;;;5021242;28;20197;-84
2022/04/07 05:50:39;;;;;;;3.45;3.10;;;12.60;99.90;;;;;;5040188;28;20583;-84
2022/04/07 05:53:06;;;;;;;4.72;3.67;;;12.50;99.90;;;;;;5040358;28;20277;-92
2022/04/07 05:55:35;;;;;;;3.53;3.17;;;12.60;99.90;;;;;;5037968;28;20183;-92
2022/04/07 05:58:05;;;;;;;3.40;2.85;;;12.60;99.90;;;;;;5023225;28;20203;-84
2022/04/07 06:00:31;;;;;;;3.30;2.87;;;12.60;99.90;;;;;;5024219;28;20182;-84
2022/04/07 06:02:57;;;;;;;3.53;3.00;;;12.60;99.90;;;;;;5048319;28;20440;-91
2022/04/07 06:05:23;;;;;;;4.38;3.00;;;12.70;99.90;;;;;;5038202;28;20419;-92
2022/04/07 06:07:49;;;;;;;4.40;3.10;;;12.70;99.90;;;;;;5021485;28;20278;-83
2022/04/07 06:10:15;;;;;;;4.23;3.03;;;12.70;99.90;;;;;;5016431;28;20423;-90
2022/04/07 06:12:46;;;;;;;5.23;4.30;;;12.70;99.90;;;;;;5011019;28;20616;-92
2022/04/07 06:15:12;;;;;;;4.00;3.67;;;12.70;99.90;;;;;;5006172;28;20517;-92
2022/04/07 06:17:41;;;;;;;5.43;4.30;;;12.70;99.90;;;;;;5007002;28;20326;-83
2022/04/07 06:20:08;;;;;;;4.10;3.40;;;12.70;99.90;;;;;;5007335;28;20512;-82
2022/04/07 06:22:34;;;;;;;4.22;2.97;;;12.80;99.90;;;;;;5006748;28;20199;-84
2022/04/07 06:25:00;;;;;;;8.10;3.20;;;12.80;99.90;;;;;;5009481;28;20270;-90
2022/04/07 06:27:41;;;;;;;3.77;3.47;;;12.90;99.90;;;;;;5004416;28;20507;-84
2022/04/07 06:30:12;;;;;;;4.83;4.13;;;12.90;99.90;;;;;;5004981;28;20850;-84
2022/04/07 06:32:38;;;;;;;4.28;3.28;;;12.90;99.90;;;;;;5010085;28;20460;-92
2022/04/07 06:35:05;;;;;;;3.55;2.65;;;12.90;99.60;;;;;;5003381;28;20181;-84
2022/04/07 06:37:30;;;;;;;2.80;2.60;;;13.00;99.80;;;;;;4987315;28;20229;-82
2022/04/07 06:40:01;;;;;;;3.70;2.63;;;13.00;99.60;;;;;;4986742;28;20428;-82
2022/04/07 06:42:27;;;;;;;3.20;2.55;;;13.00;99.50;;;;;;4986563;28;20253;-85
2022/04/07 06:44:55;;;;;;;2.33;2.10;;;13.10;99.60;;;;;;4991073;28;20183;-91
2022/04/07 06:47:24;;;;;;;3.10;2.73;;;13.10;99.40;;;;;;4987392;28;21254;-92
2022/04/07 06:49:50;;;;;;;5.10;2.83;;;13.10;99.60;;;;;;5008492;28;20436;-92
2022/04/07 06:52:17;;;;;;;2.60;2.40;;;13.10;99.50;;;;;;4988894;28;20243;-83
2022/04/07 06:54:42;;;;;;;3.60;2.80;;;13.20;99.50;;;;;;4983467;28;20430;-92
2022/04/07 06:57:08;;;;;;;2.90;2.47;;;13.20;99.40;;;;;;5005755;28;20892;-92
2022/04/07 06:59:34;;;;;;;2.27;1.93;;;13.20;99.30;;;;;;4989554;28;20187;-90
2022/04/07 07:01:59;;;;;;;2.20;2.00;;;13.30;99.30;;;;;;5000239;28;20214;-92
2022/04/07 07:04:25;;;;;;;3.83;2.30;;;13.30;99.30;;;;;;4990109;28;20725;-90
2022/04/07 07:06:51;;;;;;;4.17;2.60;;;13.30;99.30;;;;;;4977974;28;20230;-92
2022/04/07 07:09:17;;;;;;;4.50;2.57;;;13.40;99.30;;;;;;4986645;28;20522;-82
2022/04/07 07:11:43;;;;;;;3.70;2.50;;;13.30;99.40;;;;;;4995197;28;20448;-84
2022/04/07 07:14:09;;;;;;;2.23;2.00;;;13.40;99.40;;;;;;4992855;28;20440;-92
2022/04/07 07:16:35;;;;;;;3.27;2.20;;;13.40;99.70;;;;;;5024521;28;20226;-93
2022/04/07 07:19:00;;;;;;;3.33;2.50;;;13.40;99.90;;;;;;4985345;28;20435;-83
2022/04/07 07:21:26;;;;;;;2.97;2.73;;;13.40;99.90;;;;;;5000236;28;20211;-92
2022/04/07 07:23:52;;;;;;;4.30;2.70;;;13.40;99.90;;;;;;5010309;28;20227;-92
2022/04/07 07:26:18;;;;;;;2.83;2.10;;;13.40;99.80;;;;;;5007729;28;20278;-93
2022/04/07 07:28:44;;;;;;;5.30;4.23;;;13.30;99.90;;;;;;5000218;28;20188;-88
2022/04/07 07:31:09;;;;;;;4.60;2.50;;;13.40;99.90;;;;;;5006573;28;20441;-90
2022/04/07 07:33:35;;;;;;;2.23;2.03;;;13.40;99.90;;;;;;5008675;28;20206;-91
2022/04/07 07:36:01;;;;;;;4.73;2.27;;;13.40;99.70;;;;;;4998535;28;20726;-92
2022/04/07 07:38:26;;;;;;;5.43;3.23;;;13.40;99.80;;;;;;4999739;28;20782;-93
2022/04/07 07:40:52;;;;;;;3.30;1.90;;;13.40;99.60;;;;;;4997710;28;20195;-91
2022/04/07 07:43:18;;;;;;;4.17;2.77;;;13.40;99.70;;;;;;5013058;28;20222;-90
2022/04/07 07:45:44;;;;;;;2.50;2.30;;;13.40;99.70;;;;;;5015226;28;20234;-93
2022/04/07 07:48:09;;;;;;;2.67;2.47;;;13.40;99.60;;;;;;4989012;28;20203;-92
2022/04/07 07:50:40;;;;;;;2.50;2.30;;;13.40;99.70;;;;;;4990413;28;20195;-93
2022/04/07 07:53:06;;;;;;;4.23;2.10;;;13.40;99.50;;;;;;5017761;28;20234;-89
2022/04/07 07:55:35;;;;;;;2.57;2.27;;;13.40;99.50;;;;;;4998835;28;20428;-91
2022/04/07 07:58:01;;;;;;;2.50;1.97;;;13.30;99.50;;;;;;4994572;28;20214;-90
2022/04/07 08:00:27;;;;;;;3.33;1.83;;;13.40;99.50;;;;;;5002664;28;20411;-90
2022/04/07 08:02:53;;;;;;;3.67;2.30;;;13.30;99.60;;;;;;5014174;28;20211;-93
2022/04/07 08:05:18;;;;;;;2.10;1.97;;;13.30;99.70;;;;;;4992772;28;20930;-88
2022/04/07 08:07:44;;;;;;;3.20;2.20;;;13.30;99.90;;;;;;5001405;28;20231;-89
2022/04/07 08:10:10;;;;;;;3.13;1.57;;;13.30;99.90;;;;;;5007842;28;20180;-91
2022/04/07 08:12:36;;;;;;;7.67;4.10;;;13.30;99.90;;;;;;5025313;28;20207;-90
2022/04/07 08:15:04;;;;;;;52.13;21.33;;;13.20;99.90;;;;;;5000842;28;20414;-92
2022/04/07 08:17:31;;;;;;;45.90;18.50;;;13.20;99.90;;;;;;5005511;28;20468;-92
2022/04/07 08:19:56;;;;;;;10.90;7.73;;;13.20;99.90;;;;;;5004706;28;20424;-89
2022/04/07 08:22:22;;;;;;;4.93;2.53;;;13.20;99.90;;;;;;5001216;28;20705;-93
2022/04/07 08:24:48;;;;;;;2.83;2.10;;;13.10;99.90;;;;;;5011081;28;20249;-91
2022/04/07 08:27:14;;;;;;;4.27;1.93;;;13.10;99.90;;;;;;5010107;28;20250;-92
2022/04/07 08:29:40;;;;;;;5.00;2.40;;;13.10;99.90;;;;;;5010893;28;20474;-91
2022/04/07 08:32:06;;;;;;;4.80;2.67;;;13.10;99.90;;;;;;5011114;28;20614;-89
2022/04/07 08:34:32;;;;;;;1.70;1.60;;;13.10;99.90;;;;;;5026986;28;20451;-93
2022/04/07 08:36:58;;;;;;;4.17;2.40;;;13.10;99.90;;;;;;5012277;28;20206;-89
2022/04/07 08:39:24;;;;;;;5.17;4.10;;;13.20;99.90;;;;;;5008458;28;20443;-91
2022/04/07 08:41:50;;;;;;;2.07;1.87;;;13.20;99.90;;;;;;4999048;28;20200;-89
2022/04/07 08:44:17;;;;;;;2.23;1.37;;;13.20;99.90;;;;;;5011362;28;20443;-91
2022/04/07 08:46:53;;;;;;;4.00;2.57;;;13.20;99.90;;;;;;5011408;28;20973;-91
2022/04/07 08:49:25;;;;;;;2.47;2.10;;;13.20;99.90;;;;;;5005710;28;20775;-92
2022/04/07 08:51:52;;;;;;;4.00;2.73;;;13.20;99.90;;;;;;5010113;28;20472;-92
2022/04/07 08:54:19;;;;;;;3.33;2.37;;;13.20;99.90;;;;;;5012457;28;20538;-91
2022/04/07 08:56:45;;;;;;;6.80;2.80;;;13.20;99.90;;;;;;5007162;28;20838;-92
2022/04/07 08:59:12;;;;;;;6.20;3.03;;;13.10;99.90;;;;;;5030973;28;20449;-91
2022/04/07 09:01:37;;;;;;;3.53;2.40;;;13.20;99.90;;;;;;5008759;28;20538;-92
2022/04/07 09:04:04;;;;;;;4.00;2.90;;;13.20;99.90;;;;;;5025571;28;20432;-89
2022/04/07 09:06:33;;;;;;;6.33;3.70;;;13.20;99.90;;;;;;5013642;28;21227;-89
2022/04/07 09:09:10;;;;;;;4.23;3.03;;;13.30;99.90;;;;;;5008337;28;20408;-90
2022/04/07 09:11:36;;;;;;;10.53;4.00;;;13.30;99.90;;;;;;5025493;28;20423;-90
2022/04/07 09:14:01;;;;;;;4.03;3.20;;;13.30;99.90;;;;;;5010923;28;20546;-88
2022/04/07 09:16:28;;;;;;;7.33;3.77;;;13.30;99.90;;;;;;5022107;28;20210;-90
2022/04/07 09:18:54;;;;;;;4.50;3.67;;;13.30;99.90;;;;;;5022360;28;20187;-89
2022/04/07 09:21:31;;;;;;;5.43;3.10;;;13.40;99.90;;;;;;5027516;28;20497;-91
2022/04/07 09:23:58;;;;;;;3.10;2.80;;;13.40;99.90;;;;;;5010615;28;20261;-92
2022/04/07 09:26:24;;;;;;;5.40;3.17;;;13.40;99.90;;;;;;5027759;28;20491;-92
2022/04/07 09:28:55;;;;;;;5.10;3.83;;;13.40;99.90;;;;;;5003094;28;20422;-89
2022/04/07 09:31:24;;;;;;;6.83;3.80;;;13.50;99.90;;;;;;5008891;28;20439;-90
2022/04/07 09:33:57;;;;;;;3.97;3.20;;;13.60;99.90;;;;;;5033055;28;20460;-89
2022/04/07 09:36:23;;;;;;;4.10;2.77;;;13.60;99.90;;;;;;5004423;28;20443;-93
2022/04/07 09:38:54;;;;;;;5.80;3.67;;;13.60;99.90;;;;;;5002925;28;21028;-90
2022/04/07 09:41:21;;;;;;;6.90;4.47;;;13.60;99.90;;;;;;5009834;28;20467;-89
2022/04/07 09:43:53;;;;;;;3.50;3.20;;;13.60;99.90;;;;;;5010815;28;20538;-89
2022/04/07 09:46:20;;;;;;;4.80;3.50;;;13.60;99.90;;;;;;5006425;28;20529;-92
2022/04/07 09:49:07;;;;;;;4.43;2.97;;;13.60;99.90;;;;;;5010901;28;20485;-90
2022/04/07 09:51:46;;;;;;;14.27;6.27;;;13.60;99.90;;;;;;5009842;28;21022;-89
2022/04/07 09:54:14;;;;;;;14.70;8.40;;;13.70;99.90;;;;;;5026639;28;20925;-91
2022/04/07 09:56:40;;;;;;;26.20;14.93;;;13.80;99.90;;;;;;5014728;28;20440;-91
2022/04/07 09:59:07;;;;;;;8.40;5.70;;;13.90;99.90;;;;;;5032598;28;20422;-91
2022/04/07 10:01:39;;;;;;;3.40;2.93;;;14.00;99.90;;;;;;5031238;28;20439;-89
2022/04/07 10:04:06;;;;;;;5.00;3.07;;;14.00;99.90;;;;;;5029981;28;21052;-92
2022/04/07 10:06:33;;;;;;;5.67;4.73;;;14.00;99.90;;;;;;5012328;28;20575;-92
2022/04/07 10:09:02;;;;;;;5.10;3.60;;;13.90;99.90;;;;;;5000426;28;20496;-90
2022/04/07 10:11:30;;;;;;;3.60;3.17;;;14.00;99.90;;;;;;4994860;28;20428;-93
2022/04/07 10:13:56;;;;;;;4.20;3.70;;;14.00;99.90;;;;;;5016774;28;20425;-91
2022/04/07 10:16:22;;;;;;;6.57;5.20;;;14.00;99.90;;;;;;5006865;28;20483;-92
2022/04/07 10:18:55;;;;;;;8.03;6.93;;;14.10;99.90;;;;;;5015526;28;20434;-93
2022/04/07 10:21:51;;;;;;;5.77;4.00;;;14.20;99.90;;;;;;5014102;28;20452;-90
2022/04/07 10:24:26;;;;;;;5.67;5.17;;;14.20;99.90;;;;;;5000526;28;20436;-91
2022/04/07 10:26:53;;;;;;;4.57;3.70;;;14.20;99.90;;;;;;5009865;28;20487;-92
2022/04/07 10:29:23;;;;;;;5.20;3.40;;;14.30;99.90;;;;;;5015135;28;20424;-91
2022/04/07 10:32:10;;;;;;;9.70;6.33;;;14.30;99.90;;;;;;4999015;28;20460;-90
2022/04/07 10:34:43;;;;;;;5.77;3.93;;;14.40;99.90;;;;;;4993822;28;20426;-90
2022/04/07 10:37:10;;;;;;;4.50;4.10;;;14.40;99.90;;;;;;5000758;28;20542;-91
2022/04/07 10:39:41;;;;;;;6.17;4.80;;;14.40;99.90;;;;;;4991304;28;20433;-91
2022/04/07 10:42:09;;;;;;;6.73;5.90;;;14.40;99.90;;;;;;4985151;28;20469;-90
2022/04/07 10:44:36;;;;;;;6.33;5.73;;;14.50;99.90;;;;;;4990778;28;20487;-90
2022/04/07 10:47:03;;;;;;;5.40;4.90;;;14.50;99.90;;;;;;5014932;28;20546;-92
2022/04/07 10:49:30;;;;;;;7.37;5.57;;;14.60;99.90;;;;;;5000937;28;20508;-90
2022/04/07 10:51:58;;;;;;;7.53;4.47;;;14.60;99.90;;;;;;5009819;28;20478;-92
2022/04/07 10:54:28;;;;;;;6.90;5.03;;;14.70;99.90;;;;;;5011781;28;20942;-91
2022/04/07 10:56:59;;;;;;;3.87;3.43;;;14.80;99.90;;;;;;5011236;28;20490;-90
2022/04/07 10:59:28;;;;;;;5.43;4.67;;;14.80;99.90;;;;;;4999073;28;20403;-90
2022/04/07 11:02:11;;;;;;;6.20;5.27;;;14.80;99.90;;;;;;5009121;28;20460;-90
2022/04/07 11:04:45;;;;;;;6.83;5.80;;;14.90;99.90;;;;;;4996343;28;20453;-90
2022/04/07 11:07:15;;;;;;;5.97;5.37;;;14.90;99.90;;;;;;4988984;28;20492;-90
2022/04/07 11:09:57;;;;;;;7.03;5.57;;;14.90;99.90;;;;;;5003966;28;20420;-90
2022/04/07 11:12:42;;;;;;;5.43;4.63;;;14.90;99.90;;;;;;4988377;28;20465;-91
2022/04/07 11:15:30;;;;;;;8.40;6.27;;;14.90;99.90;;;;;;4986709;28;20404;-90
2022/04/07 11:18:38;;;;;;;7.93;5.87;;;14.90;99.90;;;;;;4987180;28;20564;-92
2022/04/07 11:21:11;;;;;;;8.30;5.70;;;14.90;99.90;;;;;;4958137;28;20426;-92
2022/04/07 11:23:53;;;;;;;5.00;3.50;;;14.90;99.90;;;;;;4990434;28;20785;-92
2022/04/07 11:26:34;;;;;;;18.67;12.90;;;14.80;99.90;;;;;;5008434;28;20472;-92
2022/04/07 11:29:03;;;;;;;25.30;14.73;;;14.90;99.90;;;;;;5007271;28;20420;-90
2022/04/07 11:31:45;;;;;;;17.73;14.00;;;15.00;99.90;;;;;;5004235;28;20444;-90
2022/04/07 11:34:35;;;;;;;11.87;7.70;;;15.00;99.90;;;;;;4994331;28;20483;-90
2022/04/07 11:37:06;;;;;;;9.23;7.33;;;15.10;99.90;;;;;;5008029;28;20773;-90
2022/04/07 11:39:33;;;;;;;10.00;6.50;;;15.10;99.90;;;;;;4995263;28;20451;-90
2022/04/07 11:42:00;;;;;;;7.53;5.27;;;15.20;99.90;;;;;;5008611;28;20461;-92
2022/04/07 11:44:26;;;;;;;5.80;4.27;;;15.20;99.90;;;;;;4995024;28;20779;-89
2022/04/07 11:46:52;;;;;;;6.20;4.90;;;15.30;99.90;;;;;;5008436;28;20505;-92
2022/04/07 11:49:19;;;;;;;5.90;5.10;;;15.30;99.90;;;;;;4987751;28;20862;-92
2022/04/07 11:51:46;;;;;;;8.10;7.30;;;15.30;99.90;;;;;;5011017;28;20277;-91
2022/04/07 11:54:16;;;;;;;7.30;6.53;;;15.30;99.90;;;;;;5006248;28;20681;-91
2022/04/07 11:56:42;;;;;;;6.87;6.10;;;15.30;99.90;;;;;;5012035;28;20441;-92
2022/04/07 11:59:10;;;;;;;11.37;4.97;;;15.40;99.90;;;;;;4997102;28;20410;-89
2022/04/07 12:01:38;;;;;;;6.40;5.20;;;15.50;99.90;;;;;;4999868;28;20528;-90
2022/04/07 12:04:12;;;;;;;6.07;4.53;;;15.50;99.90;;;;;;4984872;28;20866;-92
2022/04/07 12:06:44;;;;;;;7.53;5.10;;;15.50;99.90;;;;;;5007100;28;20578;-91
2022/04/07 12:09:10;;;;;;;9.60;5.83;;;15.50;99.90;;;;;;4985957;28;20425;-90
2022/04/07 12:11:39;;;;;;;9.87;8.87;;;15.50;99.90;;;;;;4986436;28;20536;-90
2022/04/07 12:14:09;;;;;;;11.50;8.90;;;15.50;99.90;;;;;;5003225;28;20421;-90
2022/04/07 12:16:41;;;;;;;12.87;9.20;;;15.60;99.90;;;;;;4988739;28;20440;-91
2022/04/07 12:19:07;;;;;;;14.20;10.00;;;15.60;99.90;;;;;;5003958;28;20422;-91
2022/04/07 12:21:57;;;;;;;14.07;10.87;;;15.70;99.90;;;;;;4987082;28;20498;-92
2022/04/07 12:24:24;;;;;;;12.50;9.77;;;15.80;99.90;;;;;;4989249;28;20672;-90
2022/04/07 12:26:54;;;;;;;12.97;11.27;;;15.90;99.90;;;;;;5004042;28;20496;-91
2022/04/07 12:29:26;;;;;;;16.83;12.17;;;16.00;99.90;;;;;;5012386;28;20802;-90
2022/04/07 12:31:58;;;;;;;17.93;12.70;;;16.10;99.90;;;;;;5002451;28;20495;-91
2022/04/07 12:34:24;;;;;;;14.73;11.73;;;16.10;99.90;;;;;;5007108;28;20980;-90
2022/04/07 12:36:51;;;;;;;14.37;12.43;;;16.20;99.90;;;;;;4991625;28;20953;-91
2022/04/07 12:39:17;;;;;;;14.07;11.77;;;16.30;99.90;;;;;;4986168;28;20440;-90
2022/04/07 12:41:51;;;;;;;13.90;12.03;;;16.30;99.90;;;;;;5003607;28;20447;-91
2022/04/07 12:44:23;;;;;;;13.07;11.50;;;16.40;99.90;;;;;;4995311;28;20179;-92
2022/04/07 12:46:58;;;;;;;13.87;10.87;;;16.50;99.90;;;;;;4990010;28;20499;-90
2022/04/07 12:49:27;;;;;;;16.23;12.77;;;16.50;99.90;;;;;;5009310;28;20403;-90